createdAt,value
2018-06-13T00:01:47.956Z,78.09
2018-06-13T00:04:16.735Z,77.70
2018-06-13T00:06:45.675Z,78.01
2018-06-13T00:09:14.306Z,78.58
2018-06-13T00:11:42.874Z,78.73
2018-06-13T00:14:12.176Z,79.21
2018-06-13T00:16:41.348Z,79.06
2018-06-13T00:19:10.076Z,78.86
2018-06-13T00:21:39.155Z,78.50
2018-06-13T00:24:07.866Z,78.73
2018-06-13T00:26:36.678Z,78.33
2018-06-13T00:29:05.768Z,77.94
2018-06-13T00:31:34.522Z,78.22
2018-06-13T00:34:03.656Z,78.49
2018-06-13T00:36:32.789Z,77.80
2018-06-13T00:39:01.530Z,78.00
2018-06-13T00:41:30.260Z,78.04
2018-06-13T00:43:59.309Z,77.94
2018-06-13T00:46:28.132Z,78.60
2018-06-13T00:48:57.118Z,78.35
2018-06-13T00:51:26.496Z,78.49
2018-06-13T00:53:55.641Z,78.52
2018-06-13T00:56:30.338Z,77.78
2018-06-13T00:58:59.126Z,78.05
2018-06-13T01:01:27.858Z,77.76
2018-06-13T01:03:56.950Z,77.96
2018-06-13T01:06:25.727Z,78.02
2018-06-13T01:08:54.746Z,78.01
2018-06-13T01:11:23.852Z,77.87
2018-06-13T01:13:52.597Z,78.34
2018-06-13T01:16:21.352Z,77.24
2018-06-13T01:18:50.304Z,77.13
2018-06-13T01:21:19.084Z,77.39
2018-06-13T01:23:47.734Z,76.86
2018-06-13T01:26:16.874Z,76.99
2018-06-13T01:28:45.621Z,77.25
2018-06-13T01:31:14.208Z,76.94
2018-06-13T01:33:43.658Z,77.38
2018-06-13T01:36:12.282Z,77.62
2018-06-13T01:38:40.873Z,77.12
2018-06-13T01:41:10.036Z,76.85
2018-06-13T01:43:38.789Z,76.66
2018-06-13T01:46:07.563Z,76.86
2018-06-13T01:48:36.699Z,76.78
2018-06-13T01:51:05.468Z,76.64
2018-06-13T01:53:34.327Z,76.11
2018-06-13T01:56:03.267Z,75.51
2018-06-13T01:58:32.328Z,75.66
2018-06-13T02:01:01.160Z,75.89
2018-06-13T02:03:30.567Z,75.29
2018-06-13T02:05:59.303Z,75.15
2018-06-13T02:08:28.052Z,75.51
2018-06-13T02:10:57.106Z,75.51
2018-06-13T02:13:25.911Z,75.30
2018-06-13T02:15:54.674Z,74.63
2018-06-13T02:18:23.822Z,75.25
2018-06-13T02:20:52.572Z,75.28
2018-06-13T02:23:21.338Z,74.28
2018-06-13T02:25:50.436Z,74.58
2018-06-13T02:28:19.014Z,74.55
2018-06-13T02:30:47.776Z,74.21
2018-06-13T02:33:17.064Z,74.00
2018-06-13T02:35:45.792Z,74.06
2018-06-13T02:38:14.919Z,74.26
2018-06-13T02:40:44.049Z,74.36
2018-06-13T02:43:12.796Z,73.94
2018-06-13T02:45:48.080Z,74.45
2018-06-13T02:48:16.871Z,74.10
2018-06-13T02:50:45.630Z,73.77
2018-06-13T02:53:14.688Z,74.09
2018-06-13T02:55:43.327Z,74.29
2018-06-13T02:58:12.080Z,74.73
2018-06-13T03:00:41.207Z,74.16
2018-06-13T03:03:10.244Z,74.71
2018-06-13T03:05:39.064Z,74.42
2018-06-13T03:08:07.966Z,73.83
2018-06-13T03:10:36.981Z,74.07
2018-06-13T03:13:05.768Z,73.40
2018-06-13T03:15:35.191Z,73.79
2018-06-13T03:18:04.005Z,73.96
2018-06-13T03:20:32.813Z,73.52
2018-06-13T03:23:01.853Z,73.61
2018-06-13T03:25:30.645Z,73.35
2018-06-13T03:27:59.393Z,73.73
2018-06-13T03:30:28.299Z,74.62
2018-06-13T03:32:57.044Z,74.11
2018-06-13T03:35:25.796Z,73.84
2018-06-13T03:37:54.926Z,74.75
2018-06-13T03:40:23.676Z,74.59
2018-06-13T03:42:52.404Z,74.14
2018-06-13T03:45:27.328Z,73.34
2018-06-13T03:47:56.146Z,74.14
2018-06-13T03:50:25.210Z,72.98
2018-06-13T03:52:54.293Z,73.71
2018-06-13T03:55:23.064Z,73.90
2018-06-13T03:57:51.803Z,72.81
2018-06-13T04:00:20.988Z,72.88
2018-06-13T04:02:49.722Z,73.37
2018-06-13T04:05:18.300Z,72.44
2018-06-13T04:07:47.241Z,72.61
2018-06-13T04:10:15.988Z,73.14
2018-06-13T04:12:44.798Z,72.89
2018-06-13T04:15:13.831Z,73.02
2018-06-13T04:17:42.568Z,72.99
2018-06-13T04:20:11.414Z,73.13
2018-06-13T04:22:40.511Z,72.25
2018-06-13T04:25:09.331Z,72.13
2018-06-13T04:27:38.087Z,72.48
2018-06-13T04:30:07.330Z,71.97
2018-06-13T04:32:35.959Z,71.77
2018-06-13T04:35:04.741Z,71.97
2018-06-13T04:37:33.881Z,71.85
2018-06-13T04:40:02.637Z,71.82
2018-06-13T04:42:31.396Z,71.14
2018-06-13T04:45:00.544Z,70.68
2018-06-13T04:47:29.282Z,70.76
2018-06-13T04:49:58.092Z,70.82
2018-06-13T04:52:27.132Z,70.48
2018-06-13T04:54:55.750Z,70.56
2018-06-13T04:57:24.632Z,71.09
2018-06-13T04:59:53.485Z,70.18
2018-06-13T05:02:22.279Z,70.03
2018-06-13T05:04:51.017Z,70.51
2018-06-13T05:07:19.959Z,71.09
2018-06-13T05:09:48.703Z,71.03
2018-06-13T05:12:17.708Z,71.52
2018-06-13T05:14:46.887Z,71.72
2018-06-13T05:17:15.636Z,71.17
2018-06-13T05:19:44.391Z,70.69
2018-06-13T05:22:13.530Z,70.55
2018-06-13T05:24:42.287Z,70.11
2018-06-13T05:27:10.934Z,70.26
2018-06-13T05:29:39.882Z,70.67
2018-06-13T05:32:08.627Z,71.77
2018-06-13T05:34:37.371Z,70.46
2018-06-13T05:37:06.556Z,69.84
2018-06-13T05:39:35.190Z,69.36
2018-06-13T05:42:03.969Z,69.13
2018-06-13T05:44:33.334Z,68.85
2018-06-13T05:47:02.103Z,69.21
2018-06-13T05:49:30.859Z,69.21
2018-06-13T05:51:59.967Z,69.11
2018-06-13T05:54:28.711Z,69.31
2018-06-13T05:56:57.488Z,69.41
2018-06-13T05:59:26.424Z,69.51
2018-06-13T06:01:55.416Z,68.86
2018-06-13T06:04:24.204Z,68.06
2018-06-13T06:06:53.402Z,67.91
2018-06-13T06:09:21.999Z,68.09
2018-06-13T06:11:50.562Z,67.86
2018-06-13T06:14:19.738Z,68.48
2018-06-13T06:16:48.513Z,67.83
2018-06-13T06:19:17.255Z,68.29
2018-06-13T06:21:46.047Z,68.69
2018-06-13T06:24:14.689Z,69.15
2018-06-13T06:26:43.428Z,71.98
2018-06-13T06:29:12.461Z,73.33
2018-06-13T06:31:41.219Z,74.16
2018-06-13T06:34:09.963Z,74.10
2018-06-13T06:36:39.054Z,74.48
2018-06-13T06:39:08.343Z,75.20
2018-06-13T06:41:37.149Z,74.15
2018-06-13T06:44:06.239Z,73.79
2018-06-13T06:46:35.006Z,72.34
2018-06-13T06:49:03.764Z,71.93
2018-06-13T06:51:32.869Z,71.59
2018-06-13T06:54:01.660Z,71.75
2018-06-13T06:56:30.428Z,71.40
2018-06-13T06:58:59.378Z,72.00
2018-06-13T07:01:28.136Z,73.55
2018-06-13T07:03:56.872Z,73.60
2018-06-13T07:06:25.952Z,74.37
2018-06-13T07:08:54.696Z,75.12
2018-06-13T07:11:23.278Z,74.98
2018-06-13T07:13:52.327Z,73.41
2018-06-13T07:16:21.078Z,73.53
2018-06-13T07:18:49.864Z,71.83
2018-06-13T07:21:19.003Z,72.52
2018-06-13T07:23:47.748Z,71.15
2018-06-13T07:26:16.791Z,71.14
2018-06-13T07:28:46.514Z,70.37
2018-06-13T07:31:15.316Z,70.87
2018-06-13T07:33:44.379Z,72.00
2018-06-13T07:36:13.488Z,72.12
2018-06-13T07:38:42.240Z,71.04
2018-06-13T07:41:11.219Z,71.53
2018-06-13T07:43:40.229Z,71.20
2018-06-13T07:46:09.082Z,70.95
2018-06-13T07:48:37.822Z,70.98
2018-06-13T07:51:07.238Z,70.84
2018-06-13T07:53:35.986Z,70.97
2018-06-13T07:56:04.906Z,69.74
2018-06-13T07:58:34.942Z,68.73
2018-06-13T08:01:03.751Z,67.95
2018-06-13T08:03:32.507Z,67.08
2018-06-13T08:06:01.462Z,66.06
2018-06-13T08:08:30.381Z,65.69
2018-06-13T08:10:59.342Z,66.25
2018-06-13T08:13:28.928Z,65.85
2018-06-13T08:15:57.712Z,65.14
2018-06-13T08:18:26.496Z,67.12
2018-06-13T08:20:55.704Z,68.35
2018-06-13T08:23:24.479Z,67.78
2018-06-13T08:25:53.233Z,68.61
2018-06-13T08:28:22.959Z,67.40
2018-06-13T08:30:51.720Z,68.21
2018-06-13T08:33:20.520Z,67.94
2018-06-13T08:35:49.668Z,66.47
2018-06-13T08:38:18.431Z,64.91
2018-06-13T08:40:47.213Z,64.10
2018-06-13T08:43:16.581Z,63.97
2018-06-13T08:45:45.620Z,64.15
2018-06-13T08:48:14.364Z,64.14
2018-06-13T08:50:43.471Z,62.53
2018-06-13T08:53:12.313Z,61.58
2018-06-13T08:55:41.210Z,61.21
2018-06-13T08:58:10.206Z,60.69
2018-06-13T09:00:38.991Z,60.83
2018-06-13T09:03:07.748Z,61.17
2018-06-13T09:05:36.883Z,60.26
2018-06-13T09:08:05.644Z,59.36
2018-06-13T09:10:34.723Z,60.04
2018-06-13T09:13:03.871Z,60.36
2018-06-13T09:15:32.637Z,60.03
2018-06-13T09:18:01.717Z,60.47
2018-06-13T09:20:31.060Z,61.27
2018-06-13T09:22:59.865Z,60.51
2018-06-13T09:25:28.637Z,59.49
2018-06-13T09:27:57.791Z,58.21
2018-06-13T09:30:26.704Z,58.01
2018-06-13T09:32:55.484Z,57.79
2018-06-13T09:35:24.715Z,57.15
2018-06-13T09:37:53.523Z,56.89
2018-06-13T09:40:22.291Z,57.03
2018-06-13T09:42:51.395Z,56.50
2018-06-13T09:45:20.174Z,54.97
2018-06-13T09:47:48.820Z,53.98
2018-06-13T09:50:19.507Z,54.16
2018-06-13T09:52:48.290Z,53.81
2018-06-13T09:55:17.070Z,55.17
2018-06-13T09:57:46.184Z,55.30
2018-06-13T10:00:20.656Z,56.03
2018-06-13T10:02:49.705Z,57.93
2018-06-13T10:05:18.467Z,59.13
2018-06-13T10:07:47.213Z,59.95
2018-06-13T10:10:16.374Z,60.60
2018-06-13T10:12:45.479Z,62.56
2018-06-13T10:15:14.232Z,63.40
2018-06-13T10:17:43.028Z,62.89
2018-06-13T10:20:12.292Z,62.33
2018-06-13T10:22:41.117Z,60.97
2018-06-13T10:25:10.249Z,60.08
2018-06-13T10:27:40.861Z,58.87
2018-06-13T10:30:09.685Z,57.88
2018-06-13T10:32:38.848Z,57.18
2018-06-13T10:35:07.936Z,56.51
2018-06-13T10:37:36.742Z,55.91
2018-06-13T10:40:06.452Z,57.35
2018-06-13T10:42:35.228Z,57.32
2018-06-13T10:45:04.093Z,56.71
2018-06-13T10:47:33.238Z,57.33
2018-06-13T10:50:01.991Z,56.67
2018-06-13T10:52:30.739Z,54.69
2018-06-13T10:54:59.812Z,53.77
2018-06-13T10:57:28.588Z,52.27
2018-06-13T10:59:57.386Z,51.97
2018-06-13T11:02:26.831Z,52.71
2018-06-13T11:04:55.600Z,55.20
2018-06-13T11:07:24.345Z,59.88
2018-06-13T11:09:53.778Z,60.81
2018-06-13T11:12:22.419Z,62.22
2018-06-13T11:14:51.185Z,62.68
2018-06-13T11:17:21.084Z,64.49
2018-06-13T11:19:49.851Z,64.17
2018-06-13T11:22:18.611Z,63.50
2018-06-13T11:24:47.856Z,63.39
2018-06-13T11:27:16.628Z,63.55
2018-06-13T11:29:45.396Z,62.11
2018-06-13T11:32:14.531Z,62.38
2018-06-13T11:34:43.347Z,60.31
2018-06-13T11:37:12.168Z,59.85
2018-06-13T11:39:41.154Z,60.81
2018-06-13T11:42:09.758Z,60.09
2018-06-13T11:44:38.504Z,58.96
2018-06-13T11:47:07.476Z,58.67
2018-06-13T11:49:36.102Z,58.99
2018-06-13T11:52:04.932Z,57.47
2018-06-13T11:54:34.048Z,58.20
2018-06-13T11:57:02.832Z,57.52
2018-06-13T11:59:31.600Z,58.79
2018-06-13T12:02:00.620Z,59.08
2018-06-13T12:04:29.367Z,59.84
2018-06-13T12:06:58.113Z,59.83
2018-06-13T12:09:27.191Z,60.16
2018-06-13T12:11:55.947Z,60.62
2018-06-13T12:14:25.026Z,62.99
2018-06-13T12:16:53.978Z,62.46
2018-06-13T12:19:22.737Z,61.45
2018-06-13T12:21:51.499Z,63.43
2018-06-13T12:24:20.647Z,63.15
2018-06-13T12:26:49.309Z,61.97
2018-06-13T12:29:18.084Z,61.85
2018-06-13T12:31:47.228Z,60.52
2018-06-13T12:34:16.187Z,59.50
2018-06-13T12:36:45.069Z,59.54
2018-06-13T12:39:14.096Z,57.25
2018-06-13T12:41:42.863Z,56.25
2018-06-13T12:44:11.626Z,56.04
2018-06-13T12:46:40.575Z,54.57
2018-06-13T12:49:10.252Z,51.91
2018-06-13T12:51:39.076Z,50.72
2018-06-13T12:54:08.016Z,50.66
2018-06-13T12:56:36.642Z,51.59
2018-06-13T12:59:05.422Z,50.44
2018-06-13T13:01:34.512Z,48.04
2018-06-13T13:04:03.356Z,47.09
2018-06-13T13:06:32.125Z,47.34
2018-06-13T13:09:01.079Z,48.28
2018-06-13T13:11:29.846Z,47.13
2018-06-13T13:13:58.762Z,48.43
2018-06-13T13:16:27.743Z,47.45
2018-06-13T13:18:56.345Z,47.17
2018-06-13T13:21:25.375Z,47.30
2018-06-13T13:23:54.475Z,47.74
2018-06-13T13:26:23.268Z,46.46
2018-06-13T13:28:52.430Z,46.33
2018-06-13T13:31:21.490Z,46.31
2018-06-13T13:33:50.257Z,45.78
2018-06-13T13:36:19.030Z,44.23
2018-06-13T13:38:48.245Z,43.91
2018-06-13T13:41:17.059Z,42.86
2018-06-13T13:43:45.896Z,44.20
2018-06-13T13:46:21.344Z,45.75
2018-06-13T13:48:50.099Z,46.47
2018-06-13T13:51:18.899Z,47.45
2018-06-13T13:53:47.962Z,46.87
2018-06-13T13:56:16.723Z,47.10
2018-06-13T13:58:45.777Z,47.41
2018-06-13T14:01:14.929Z,47.19
2018-06-13T14:03:44.091Z,46.18
2018-06-13T14:06:12.839Z,46.94
2018-06-13T14:08:41.900Z,47.43
2018-06-13T14:11:10.774Z,47.05
2018-06-13T14:13:39.532Z,49.32
2018-06-13T14:16:08.425Z,48.51
2018-06-13T14:18:37.191Z,49.17
2018-06-13T14:21:05.960Z,48.81
2018-06-13T14:23:34.897Z,49.71
2018-06-13T14:26:03.711Z,49.87
2018-06-13T14:28:32.525Z,49.82
2018-06-13T14:31:01.500Z,48.34
2018-06-13T14:33:30.308Z,47.48
2018-06-13T14:35:59.423Z,46.29
2018-06-13T14:38:28.931Z,47.25
2018-06-13T14:40:57.747Z,47.28
2018-06-13T14:43:26.863Z,47.59
2018-06-13T14:46:01.822Z,48.13
2018-06-13T14:48:30.670Z,47.98
2018-06-13T14:50:59.507Z,47.69
2018-06-13T14:53:28.568Z,48.14
2018-06-13T14:56:02.731Z,48.98
2018-06-13T14:58:31.940Z,48.80
2018-06-13T15:01:00.829Z,47.77
2018-06-13T15:03:29.589Z,47.18
2018-06-13T15:05:59.059Z,45.54
2018-06-13T15:10:55.739Z,45.79
2018-06-13T15:13:24.899Z,46.27
2018-06-13T15:15:53.663Z,47.27
2018-06-13T15:18:22.422Z,46.39
2018-06-13T15:20:51.251Z,46.11
2018-06-13T15:23:20.007Z,46.80
2018-06-13T15:25:48.814Z,47.25
2018-06-13T15:28:21.947Z,45.79
2018-06-13T15:30:50.875Z,47.45
2018-06-13T15:33:19.651Z,47.78
2018-06-13T15:35:48.752Z,47.61
2018-06-13T15:38:17.562Z,47.48
2018-06-13T15:40:46.403Z,47.50
2018-06-13T15:43:15.463Z,48.18
2018-06-13T15:45:44.236Z,48.46
2018-06-13T15:48:13.388Z,49.65
2018-06-13T15:50:42.454Z,48.87
2018-06-13T15:53:11.595Z,48.60
2018-06-13T15:55:40.663Z,48.33
2018-06-13T15:58:09.747Z,49.37
2018-06-13T16:00:38.551Z,48.91
2018-06-13T16:03:07.850Z,47.47
2018-06-13T16:05:36.680Z,47.91
2018-06-13T16:08:05.532Z,46.92
2018-06-13T16:10:34.361Z,47.91
2018-06-13T16:13:03.413Z,47.80
2018-06-13T16:15:32.055Z,48.63
2018-06-13T16:18:00.816Z,48.57
2018-06-13T16:20:29.641Z,47.81
2018-06-13T16:22:58.401Z,48.21
2018-06-13T16:25:27.099Z,48.58
2018-06-13T16:27:55.968Z,49.17
2018-06-13T16:30:24.758Z,48.84
2018-06-13T16:32:53.516Z,49.10
2018-06-13T16:35:22.335Z,48.83
2018-06-13T16:37:51.432Z,49.60
2018-06-13T16:40:20.532Z,49.00
2018-06-13T16:42:49.885Z,49.42
2018-06-13T16:45:18.694Z,49.43
2018-06-13T16:47:47.805Z,48.47
2018-06-13T16:50:33.449Z,48.84
2018-06-13T16:53:11.676Z,48.74
2018-06-13T16:55:40.477Z,48.65
2018-06-13T16:58:09.222Z,48.39
2018-06-13T17:00:37.818Z,48.28
2018-06-13T17:03:08.141Z,49.24
2018-06-13T17:05:36.900Z,48.09
2018-06-13T17:08:05.739Z,47.57
2018-06-13T17:10:34.680Z,47.46
2018-06-13T17:13:03.429Z,45.81
2018-06-13T17:15:32.320Z,45.30
2018-06-13T17:18:01.528Z,45.49
2018-06-13T17:20:30.316Z,45.68
2018-06-13T17:22:59.078Z,45.82
2018-06-13T17:25:28.207Z,45.73
2018-06-13T17:27:57.038Z,47.13
2018-06-13T17:30:25.784Z,47.92
2018-06-13T17:32:54.868Z,48.06
2018-06-13T17:35:23.632Z,46.89
2018-06-13T17:37:52.303Z,46.26
2018-06-13T17:40:21.474Z,46.39
2018-06-13T17:42:50.241Z,45.73
2018-06-13T17:45:19.036Z,45.69
2018-06-13T17:47:48.148Z,46.83
2018-06-13T17:50:16.918Z,48.22
2018-06-13T17:52:45.716Z,48.61
2018-06-13T17:55:14.828Z,48.67
2018-06-13T17:57:43.604Z,48.19
2018-06-13T18:00:12.352Z,49.32
2018-06-13T18:02:40.987Z,48.55
2018-06-13T18:05:09.840Z,49.31
2018-06-13T18:07:38.878Z,49.60
2018-06-13T18:10:08.075Z,49.13
2018-06-13T18:12:36.861Z,49.24
2018-06-13T18:15:06.127Z,49.59
2018-06-13T18:17:35.280Z,49.58
2018-06-13T18:20:04.742Z,49.69
2018-06-13T18:22:33.571Z,50.19
2018-06-13T18:25:02.447Z,50.51
2018-06-13T18:27:31.256Z,50.95
2018-06-13T18:30:00.082Z,50.34
2018-06-13T18:32:28.891Z,50.39
2018-06-13T18:34:57.723Z,50.34
2018-06-13T18:37:26.919Z,50.37
2018-06-13T18:39:56.044Z,50.53
2018-06-13T18:42:24.884Z,50.40
2018-06-13T18:44:53.675Z,51.19
2018-06-13T18:47:22.895Z,51.23
2018-06-13T18:49:51.907Z,51.95
2018-06-13T18:52:20.653Z,51.47
2018-06-13T18:54:49.599Z,50.45
2018-06-13T18:57:18.321Z,51.42
2018-06-13T18:59:47.195Z,51.56
2018-06-13T19:02:16.143Z,51.66
2018-06-13T19:04:45.148Z,51.97
2018-06-13T19:07:14.527Z,51.64
2018-06-13T19:09:43.328Z,51.59
2018-06-13T19:12:12.114Z,51.59
2018-06-13T19:14:40.856Z,51.17
2018-06-13T19:17:09.470Z,51.67
2018-06-13T19:19:38.335Z,51.44
2018-06-13T19:22:07.061Z,51.49
2018-06-13T19:24:36.127Z,52.46
2018-06-13T19:27:04.892Z,52.36
2018-06-13T19:29:33.614Z,52.47
2018-06-13T19:32:02.444Z,52.08
2018-06-13T19:34:31.491Z,52.56
2018-06-13T19:37:00.227Z,52.60
2018-06-13T19:39:29.040Z,52.56
2018-06-13T19:41:58.114Z,52.64
2018-06-13T19:44:26.846Z,53.35
2018-06-13T19:46:59.943Z,53.21
2018-06-13T19:49:29.031Z,53.53
2018-06-13T19:51:57.616Z,53.33
2018-06-13T19:54:31.871Z,53.25
2018-06-13T19:57:00.837Z,53.32
2018-06-13T19:59:29.576Z,54.16
2018-06-13T20:01:58.667Z,53.92
2018-06-13T20:04:32.995Z,53.97
2018-06-13T20:07:02.111Z,54.48
2018-06-13T20:09:30.844Z,54.84
2018-06-13T20:12:05.043Z,54.90
2018-06-13T20:14:39.675Z,54.76
2018-06-13T20:17:14.344Z,56.60
2018-06-13T20:19:43.550Z,57.22
2018-06-13T20:22:12.308Z,56.02
2018-06-13T20:24:45.563Z,56.19
2018-06-13T20:27:19.963Z,56.95
2018-06-13T20:29:54.308Z,58.68
2018-06-13T20:32:23.088Z,58.54
2018-06-13T20:34:52.160Z,58.85
2018-06-13T20:37:20.994Z,59.10
2018-06-13T20:39:49.654Z,59.29
2018-06-13T20:42:18.567Z,60.71
2018-06-13T20:44:47.783Z,60.71
2018-06-13T20:47:16.517Z,60.92
2018-06-13T20:49:45.544Z,61.81
2018-06-13T20:52:14.604Z,61.37
2018-06-13T20:54:43.571Z,64.49
2018-06-13T20:57:12.305Z,64.07
2018-06-13T20:59:41.518Z,64.34
2018-06-13T21:02:10.304Z,65.33
2018-06-13T21:04:39.019Z,63.26
2018-06-13T21:07:07.963Z,62.85
2018-06-13T21:09:36.996Z,63.19
2018-06-13T21:12:05.634Z,64.64
2018-06-13T21:14:34.637Z,65.29
2018-06-13T21:17:03.412Z,65.42
2018-06-13T21:19:32.139Z,65.47
2018-06-13T21:22:01.419Z,65.52
2018-06-13T21:24:31.287Z,63.95
2018-06-13T21:27:00.073Z,64.18
2018-06-13T21:29:29.118Z,64.90
2018-06-13T21:31:57.855Z,65.32
2018-06-13T21:34:26.704Z,65.26
2018-06-13T21:36:57.326Z,65.36
2018-06-13T21:39:26.148Z,65.27
2018-06-13T21:41:54.891Z,65.69
2018-06-13T21:44:23.900Z,65.06
2018-06-13T21:46:52.661Z,65.67
2018-06-13T21:49:21.418Z,66.31
2018-06-13T21:51:50.392Z,66.13
2018-06-13T21:54:19.128Z,66.47
2018-06-13T21:56:47.880Z,66.25
2018-06-13T21:59:16.946Z,66.45
2018-06-13T22:01:46.008Z,67.00
2018-06-13T22:04:15.104Z,67.46
2018-06-13T22:06:44.032Z,66.60
2018-06-13T22:09:12.750Z,66.31
2018-06-13T22:11:47.451Z,66.24
2018-06-13T22:14:16.078Z,66.50
2018-06-13T22:16:44.812Z,66.53
2018-06-13T22:19:13.795Z,66.96
2018-06-13T22:21:42.537Z,66.72
2018-06-13T22:24:11.712Z,67.05
2018-06-13T22:26:41.014Z,66.67
2018-06-13T22:29:09.758Z,66.92
2018-06-13T22:31:38.535Z,68.46
2018-06-13T22:34:07.478Z,66.80
2018-06-13T22:36:36.671Z,65.90
2018-06-13T22:39:10.189Z,66.46
2018-06-13T22:41:38.922Z,67.27
2018-06-13T22:44:07.534Z,66.61
2018-06-13T22:46:37.028Z,66.25
2018-06-13T22:49:05.785Z,65.90
2018-06-13T22:51:34.576Z,65.04
2018-06-13T22:54:03.380Z,66.71
2018-06-13T22:56:32.480Z,65.43
2018-06-13T22:59:01.046Z,65.43
2018-06-13T23:01:30.212Z,65.63
2018-06-13T23:03:58.956Z,64.34
2018-06-13T23:06:27.523Z,63.55
2018-06-13T23:08:56.482Z,64.17
2018-06-13T23:11:25.215Z,64.02
2018-06-13T23:13:54.028Z,64.11
2018-06-13T23:16:23.563Z,64.67
2018-06-13T23:18:52.625Z,66.46
2018-06-13T23:21:21.376Z,66.83
2018-06-13T23:23:50.303Z,64.40
2018-06-13T23:26:19.088Z,64.78
2018-06-13T23:28:47.880Z,66.18
2018-06-13T23:31:16.906Z,66.47
2018-06-13T23:33:45.646Z,64.62
2018-06-13T23:36:14.396Z,64.93
2018-06-13T23:38:43.594Z,63.90
2018-06-13T23:41:12.328Z,64.35
2018-06-13T23:43:40.898Z,63.84
2018-06-13T23:46:16.007Z,63.93
2018-06-13T23:48:44.653Z,64.07
2018-06-13T23:51:13.388Z,64.77
2018-06-13T23:53:42.484Z,64.87
2018-06-13T23:56:11.215Z,64.52
2018-06-13T23:58:39.787Z,65.53
